Time;durP1;ratioP1;P1;durP2;ratioP2;P2;SDS_P1;SDS_P2;PMS_P1;PMS_P2;Temp;Humidity;BMP_temperature;BMP_pressure;BME280_temperature;BME280_humidity;BME280_pressure;Samples;Min_cycle;Max_cycle;Signal;HPM_P1;HPM_P2
2022/12/17 13:08:06;;;;;;;84.20;39.50;;;;;;;;;;5092350;27;20202;-78
2022/12/17 13:10:33;;;;;;;86.38;41.92;;;;;;;;;;5083528;28;20078;-77
2022/12/17 13:13:06;;;;;;;84.35;36.15;;;;;;;;;;5059564;27;20095;-77
2022/12/17 13:15:35;;;;;;;92.10;41.83;;;;;;;;;;5082793;27;20047;-73
2022/12/17 13:18:15;;;;;;;97.30;41.75;;;;;;;;;;5088190;27;20032;-73
2022/12/17 13:20:41;;;;;;;85.85;40.38;;;;;;;;;;5085799;27;20048;-73
2022/12/17 13:23:15;;;;;;;81.38;39.67;;;;;;;;;;5089570;27;20055;-73
2022/12/17 13:25:41;;;;;;;89.35;41.53;;;;;;;;;;5090197;27;20043;-73
2022/12/17 13:28:27;;;;;;;90.65;41.55;;;;;;;;;;5084171;27;20047;-73
2022/12/17 13:31:03;;;;;;;90.35;42.17;;;;;;;;;;5090426;28;20058;-73
2022/12/17 13:33:34;;;;;;;81.40;39.70;;;;;;;;;;5092704;28;20503;-72
2022/12/17 13:36:21;;;;;;;88.50;39.90;;;;;;;;;;5096225;28;20083;-73
2022/12/17 13:39:26;;;;;;;87.07;40.22;;;;;;;;;;5101730;28;20031;-72
2022/12/17 13:41:55;;;;;;;82.65;39.50;;;;;;;;;;5028059;28;20035;-72
2022/12/17 13:44:39;;;;;;;81.03;38.42;;;;;;;;;;5041385;28;20041;-72
2022/12/17 13:47:06;;;;;;;;;;;;;;;;;;5075415;28;20047;-73
2022/12/17 13:49:32;;;;;;;89.85;41.72;;;;;;;;;;5102358;27;19995;-73
2022/12/17 13:52:06;;;;;;;86.78;41.75;;;;;;;;;;5100699;27;20130;-73
2022/12/17 13:54:32;;;;;;;84.60;38.35;;;;;;;;;;5101136;27;20043;-73
2022/12/17 13:57:17;;;;;;;83.68;40.88;;;;;;;;;;5098661;27;20451;-73
2022/12/17 13:59:54;;;;;;;87.03;41.90;;;;;;;;;;5097286;27;22068;-73
2022/12/17 14:02:27;;;;;;;77.13;37.38;;;;;;;;;;5101608;27;20055;-73
2022/12/17 14:04:54;;;;;;;87.10;42.95;;;;;;;;;;5101041;27;20387;-73
2022/12/17 14:07:21;;;;;;;78.90;34.47;;;;;;;;;;5102760;27;20039;-73
2022/12/17 14:09:47;;;;;;;94.20;41.60;;;;;;;;;;5100883;27;20054;-73
2022/12/17 14:12:21;;;;;;;93.63;41.38;;;;;;;;;;5098413;27;20031;-72
2022/12/17 14:14:54;;;;;;;102.30;45.35;;;;;;;;;;5101689;27;20039;-73
2022/12/17 14:17:39;;;;;;;80.72;40.22;;;;;;;;;;5097383;27;20156;-72
2022/12/17 14:20:07;;;;;;;83.75;39.22;;;;;;;;;;5088079;27;20494;-72
2022/12/17 14:22:38;;;;;;;92.45;43.13;;;;;;;;;;5091813;27;20063;-74
2022/12/17 14:25:05;;;;;;;87.35;39.15;;;;;;;;;;5097894;27;20043;-73
2022/12/17 14:27:35;;;;;;;83.53;39.15;;;;;;;;;;5096691;27;21627;-74
2022/12/17 14:30:18;;;;;;;104.55;44.67;;;;;;;;;;5097745;27;20136;-73
2022/12/17 14:32:45;;;;;;;92.47;42.78;;;;;;;;;;5104258;27;20063;-74
2022/12/17 14:35:25;;;;;;;96.25;43.10;;;;;;;;;;5106187;27;20047;-74
2022/12/17 14:37:51;;;;;;;92.97;40.55;;;;;;;;;;5094677;27;20867;-73
2022/12/17 14:40:17;;;;;;;99.88;45.28;;;;;;;;;;5117048;27;20047;-74
2022/12/17 14:42:43;;;;;;;88.53;37.58;;;;;;;;;;5116920;27;21726;-73
2022/12/17 14:45:12;;;;;;;100.80;44.33;;;;;;;;;;5098285;27;20058;-74
2022/12/17 14:47:38;;;;;;;98.60;43.10;;;;;;;;;;5117869;27;20047;-73
2022/12/17 14:50:08;;;;;;;105.82;43.67;;;;;;;;;;5116459;27;20168;-73
2022/12/17 14:52:44;;;;;;;91.80;40.47;;;;;;;;;;5120845;27;20039;-73
2022/12/17 14:55:23;;;;;;;101.82;44.25;;;;;;;;;;5114164;27;20035;-74
2022/12/17 14:57:49;;;;;;;87.63;38.47;;;;;;;;;;5118223;27;20039;-74
2022/12/17 15:00:15;;;;;;;96.15;41.83;;;;;;;;;;5115632;27;20043;-72
2022/12/17 15:02:43;;;;;;;96.55;43.85;;;;;;;;;;5094014;27;20087;-72
2022/12/17 15:05:14;;;;;;;102.97;39.35;;;;;;;;;;5114040;27;20086;-72
2022/12/17 15:07:40;;;;;;;93.45;39.40;;;;;;;;;;5094809;27;20100;-72
2022/12/17 15:10:14;;;;;;;93.03;40.10;;;;;;;;;;5097517;27;20074;-72
2022/12/17 15:12:41;;;;;;;89.78;39.13;;;;;;;;;;5119333;27;20043;-72
2022/12/17 15:15:07;;;;;;;99.30;39.88;;;;;;;;;;5104788;27;20039;-71
2022/12/17 15:17:34;;;;;;;85.35;35.88;;;;;;;;;;5118329;27;20035;-72
2022/12/17 15:20:00;;;;;;;99.68;43.35;;;;;;;;;;5116577;27;20103;-72
2022/12/17 15:22:26;;;;;;;102.00;43.60;;;;;;;;;;5121460;27;20034;-73
2022/12/17 15:24:52;;;;;;;99.78;40.35;;;;;;;;;;5101032;27;20047;-73
2022/12/17 15:27:18;;;;;;;98.22;43.30;;;;;;;;;;5117941;27;20050;-72
2022/12/17 15:29:44;;;;;;;90.90;38.30;;;;;;;;;;5119344;27;20054;-72
2022/12/17 15:32:20;;;;;;;91.78;35.20;;;;;;;;;;5096848;27;20138;-72
2022/12/17 15:34:46;;;;;;;87.43;35.40;;;;;;;;;;5097502;27;20092;-73
2022/12/17 15:37:13;;;;;;;99.50;43.95;;;;;;;;;;5100360;27;20043;-72
2022/12/17 15:39:39;;;;;;;79.90;34.13;;;;;;;;;;5112593;27;20034;-72
2022/12/17 15:44:50;;;;;;;83.93;35.33;;;;;;;;;;5114071;27;20092;-72
2022/12/17 15:47:16;;;;;;;88.78;37.33;;;;;;;;;;5119355;27;20050;-72
2022/12/17 15:49:43;;;;;;;92.38;40.00;;;;;;;;;;5120069;27;20095;-73
2022/12/17 15:52:09;;;;;;;85.70;36.60;;;;;;;;;;5093191;27;22072;-71
2022/12/17 15:54:35;;;;;;;83.63;35.17;;;;;;;;;;5123360;27;20498;-72
2022/12/17 15:57:02;;;;;;;92.13;37.80;;;;;;;;;;5113923;27;20038;-72
2022/12/17 15:59:28;;;;;;;73.97;29.35;;;;;;;;;;5115511;27;20053;-73
2022/12/17 16:01:54;;;;;;;96.88;39.65;;;;;;;;;;5117239;27;20051;-73
2022/12/17 16:04:20;;;;;;;95.65;37.75;;;;;;;;;;5099962;27;20061;-72
2022/12/17 16:06:46;;;;;;;97.97;41.47;;;;;;;;;;5117940;27;20087;-71
2022/12/17 16:09:12;;;;;;;84.88;36.42;;;;;;;;;;5119747;27;20053;-72
2022/12/17 16:11:38;;;;;;;80.10;33.90;;;;;;;;;;5100194;27;20074;-72
2022/12/17 16:14:04;;;;;;;101.93;39.38;;;;;;;;;;5117479;27;20182;-72
2022/12/17 16:16:30;;;;;;;99.50;38.85;;;;;;;;;;5118967;27;20042;-72
2022/12/17 16:18:56;;;;;;;82.45;33.67;;;;;;;;;;5118034;27;20582;-71
2022/12/17 16:21:22;;;;;;;102.47;41.72;;;;;;;;;;5118432;27;20809;-72
2022/12/17 16:23:48;;;;;;;82.90;31.80;;;;;;;;;;5114621;27;20057;-72
2022/12/17 16:26:14;;;;;;;90.40;33.85;;;;;;;;;;5115194;27;20034;-72
2022/12/17 16:28:43;;;;;;;100.82;36.90;;;;;;;;;;5093554;27;20049;-72
2022/12/17 16:31:11;;;;;;;93.63;36.30;;;;;;;;;;5116110;27;20099;-72
2022/12/17 16:33:41;;;;;;;90.63;32.85;;;;;;;;;;5114650;27;20747;-75
2022/12/17 16:36:08;;;;;;;77.60;30.42;;;;;;;;;;5095513;27;20051;-70
2022/12/17 16:38:35;;;;;;;75.68;28.38;;;;;;;;;;5095599;27;20077;-74
2022/12/17 16:41:02;;;;;;;87.03;32.33;;;;;;;;;;5097966;27;20095;-74
2022/12/17 16:43:31;;;;;;;91.03;35.53;;;;;;;;;;5095929;27;20074;-75
2022/12/17 16:45:57;;;;;;;105.85;37.80;;;;;;;;;;5098091;27;20379;-75
2022/12/17 16:48:24;;;;;;;89.90;33.92;;;;;;;;;;5092170;27;20078;-75
2022/12/17 16:50:50;;;;;;;113.38;38.63;;;;;;;;;;5113760;27;20074;-75
2022/12/17 16:53:17;;;;;;;91.82;34.95;;;;;;;;;;5097555;27;20047;-75
2022/12/17 16:55:44;;;;;;;94.28;32.08;;;;;;;;;;5106942;27;20045;-76
2022/12/17 16:58:11;;;;;;;92.18;32.83;;;;;;;;;;5093627;27;20148;-74
2022/12/17 17:00:37;;;;;;;102.40;35.40;;;;;;;;;;5089323;27;20092;-74
2022/12/17 17:03:04;;;;;;;110.82;36.78;;;;;;;;;;5124531;27;20043;-74
2022/12/17 17:05:34;;;;;;;83.60;28.80;;;;;;;;;;5105962;27;20100;-75
2022/12/17 17:08:01;;;;;;;75.25;28.23;;;;;;;;;;5094536;27;20043;-74
2022/12/17 17:10:27;;;;;;;73.22;25.67;;;;;;;;;;5107395;27;20100;-75
2022/12/17 17:12:53;;;;;;;85.45;30.77;;;;;;;;;;5093294;27;20038;-75
2022/12/17 17:15:21;;;;;;;91.97;32.25;;;;;;;;;;5091358;27;20034;-74
2022/12/17 17:17:47;;;;;;;109.20;34.40;;;;;;;;;;5121393;27;20228;-74
2022/12/17 17:20:13;;;;;;;105.60;33.20;;;;;;;;;;5103120;27;20046;-75
2022/12/17 17:22:39;;;;;;;104.93;33.80;;;;;;;;;;5114073;27;20047;-75
2022/12/17 17:25:06;;;;;;;117.28;37.70;;;;;;;;;;5093574;27;20130;-74
2022/12/17 17:27:32;;;;;;;110.72;35.78;;;;;;;;;;5105743;27;20046;-74
2022/12/17 17:29:58;;;;;;;123.50;37.42;;;;;;;;;;5096076;27;20134;-74
2022/12/17 17:32:24;;;;;;;109.70;35.20;;;;;;;;;;5091477;27;20039;-74
2022/12/17 17:34:51;;;;;;;91.63;31.38;;;;;;;;;;5127535;27;20063;-74
2022/12/17 17:37:17;;;;;;;106.47;32.00;;;;;;;;;;5115207;27;20062;-75
2022/12/17 17:39:43;;;;;;;106.63;32.88;;;;;;;;;;5123778;27;20584;-74
2022/12/17 17:42:10;;;;;;;91.22;31.77;;;;;;;;;;5108692;27;20058;-75
2022/12/17 17:44:37;;;;;;;102.60;34.42;;;;;;;;;;5091107;27;20099;-75
2022/12/17 17:47:03;;;;;;;104.55;33.70;;;;;;;;;;5107246;27;20161;-74
2022/12/17 17:49:29;;;;;;;95.75;32.13;;;;;;;;;;5090491;27;20046;-74
2022/12/17 17:51:55;;;;;;;105.07;32.50;;;;;;;;;;5110536;27;20082;-75
2022/12/17 17:54:22;;;;;;;93.60;31.25;;;;;;;;;;5090024;27;20060;-74
2022/12/17 17:56:48;;;;;;;110.55;32.08;;;;;;;;;;5110912;27;20513;-75
2022/12/17 17:59:17;;;;;;;104.20;29.77;;;;;;;;;;5110792;27;20077;-75
2022/12/17 18:01:45;;;;;;;136.75;38.38;;;;;;;;;;5100747;27;20092;-75
2022/12/17 18:04:12;;;;;;;113.43;31.98;;;;;;;;;;5107483;27;20047;-75
2022/12/17 18:06:39;;;;;;;111.15;33.72;;;;;;;;;;5103126;27;20046;-75
2022/12/17 18:09:05;;;;;;;146.32;41.55;;;;;;;;;;5086175;27;20050;-75
2022/12/17 18:11:32;;;;;;;127.60;38.75;;;;;;;;;;5099982;27;20039;-76
2022/12/17 18:13:59;;;;;;;88.78;25.10;;;;;;;;;;5093549;27;20031;-76
2022/12/17 18:16:40;;;;;;;115.55;35.78;;;;;;;;;;5099870;27;21823;-75
2022/12/17 18:19:08;;;;;;;122.90;35.88;;;;;;;;;;5101940;27;20094;-75
2022/12/17 18:21:34;;;;;;;113.03;34.45;;;;;;;;;;5098812;27;20135;-76
2022/12/17 18:24:01;;;;;;;118.75;34.72;;;;;;;;;;5099630;27;20078;-76
2022/12/17 18:26:29;;;;;;;108.88;31.98;;;;;;;;;;5105363;27;20046;-75
2022/12/17 18:28:55;;;;;;;117.57;35.85;;;;;;;;;;5105655;27;20043;-79
2022/12/17 18:31:23;;;;;;;102.07;34.20;;;;;;;;;;5102909;27;20126;-78
2022/12/17 18:33:54;;;;;;;123.18;37.38;;;;;;;;;;5107556;27;20052;-79
2022/12/17 18:36:25;;;;;;;134.07;41.35;;;;;;;;;;5105379;27;20057;-78
2022/12/17 18:38:59;;;;;;;135.80;40.70;;;;;;;;;;5105012;27;20148;-78
2022/12/17 18:44:10;;;;;;;143.98;40.60;;;;;;;;;;5106397;27;20047;-78
2022/12/17 18:46:37;;;;;;;119.47;35.72;;;;;;;;;;5105035;27;21775;-78
2022/12/17 18:49:04;;;;;;;109.07;32.58;;;;;;;;;;5092580;27;20162;-78
2022/12/17 18:51:30;;;;;;;112.50;34.47;;;;;;;;;;5107857;27;20043;-78
2022/12/17 18:54:00;;;;;;;115.93;36.38;;;;;;;;;;5091167;27;20034;-78
2022/12/17 18:56:27;;;;;;;120.97;38.72;;;;;;;;;;5107880;27;20038;-79
2022/12/17 18:58:54;;;;;;;108.93;33.33;;;;;;;;;;5104827;27;20043;-78
2022/12/17 19:01:21;;;;;;;124.90;37.65;;;;;;;;;;5104485;27;20051;-79
2022/12/17 19:03:48;;;;;;;120.53;38.65;;;;;;;;;;5087988;27;20115;-79
2022/12/17 19:06:14;;;;;;;116.68;40.20;;;;;;;;;;5094134;27;20066;-79
2022/12/17 19:08:40;;;;;;;107.28;36.50;;;;;;;;;;5103412;27;20939;-79
2022/12/17 19:11:07;;;;;;;98.43;31.85;;;;;;;;;;5103493;27;20252;-79
2022/12/17 19:13:33;;;;;;;110.93;36.42;;;;;;;;;;5107243;27;20091;-79
2022/12/17 19:16:12;;;;;;;121.30;40.92;;;;;;;;;;5103285;27;20041;-79
2022/12/17 19:18:38;;;;;;;103.47;35.80;;;;;;;;;;5105904;27;20043;-79
2022/12/17 19:21:05;;;;;;;118.65;38.35;;;;;;;;;;5105721;27;20402;-79
2022/12/17 19:23:32;;;;;;;111.35;38.65;;;;;;;;;;5121993;27;20228;-79
2022/12/17 19:26:08;;;;;;;123.78;41.13;;;;;;;;;;5104518;27;20099;-79
2022/12/17 19:28:34;;;;;;;115.28;39.83;;;;;;;;;;5122347;27;20120;-79
2022/12/17 19:31:01;;;;;;;124.50;41.45;;;;;;;;;;5103729;27;20094;-79
2022/12/17 19:33:27;;;;;;;112.13;40.42;;;;;;;;;;5100429;27;20832;-79
2022/12/17 19:36:03;;;;;;;122.15;41.28;;;;;;;;;;5105956;27;20134;-79
2022/12/17 19:38:30;;;;;;;103.18;38.45;;;;;;;;;;5105246;27;20104;-79
2022/12/17 19:40:56;;;;;;;121.88;43.90;;;;;;;;;;5105123;27;20053;-78
2022/12/17 19:43:22;;;;;;;109.47;37.72;;;;;;;;;;5086932;27;20039;-79
2022/12/17 19:45:49;;;;;;;100.03;33.60;;;;;;;;;;5101457;27;20043;-78
2022/12/17 19:48:15;;;;;;;108.15;41.55;;;;;;;;;;5108478;27;20058;-79
2022/12/17 19:50:42;;;;;;;109.28;42.40;;;;;;;;;;5100231;27;20109;-78
2022/12/17 19:53:08;;;;;;;122.57;42.90;;;;;;;;;;5120145;27;20042;-79
2022/12/17 19:55:34;;;;;;;118.10;45.95;;;;;;;;;;5093647;27;20130;-79
2022/12/17 19:58:00;;;;;;;96.43;33.63;;;;;;;;;;5103460;27;20436;-78
2022/12/17 20:00:26;;;;;;;119.10;43.85;;;;;;;;;;5104240;27;20495;-78
2022/12/17 20:02:52;;;;;;;125.13;46.05;;;;;;;;;;5102939;27;20395;-78
2022/12/17 20:05:18;;;;;;;105.50;41.63;;;;;;;;;;5102540;27;20133;-78
2022/12/17 20:07:44;;;;;;;102.72;40.30;;;;;;;;;;5102954;27;20054;-78
2022/12/17 20:10:10;;;;;;;117.50;47.38;;;;;;;;;;5103115;27;20042;-78
2022/12/17 20:12:36;;;;;;;127.38;48.33;;;;;;;;;;5102905;27;20039;-78
2022/12/17 20:15:02;;;;;;;120.10;46.55;;;;;;;;;;5108237;27;20059;-78
2022/12/17 20:17:28;;;;;;;120.00;47.20;;;;;;;;;;5103461;27;20553;-78
2022/12/17 20:19:55;;;;;;;119.88;50.33;;;;;;;;;;5103838;27;20064;-78
2022/12/17 20:22:21;;;;;;;119.72;44.63;;;;;;;;;;5101535;27;20043;-79
2022/12/17 20:24:47;;;;;;;122.38;46.83;;;;;;;;;;5101167;27;20048;-78
2022/12/17 20:27:13;;;;;;;117.20;46.38;;;;;;;;;;5102358;27;20043;-78
2022/12/17 20:29:39;;;;;;;126.43;50.80;;;;;;;;;;5103880;27;20051;-78
2022/12/17 20:32:05;;;;;;;125.05;53.33;;;;;;;;;;5084108;27;20065;-79
2022/12/17 20:34:31;;;;;;;95.00;39.83;;;;;;;;;;5098656;27;20035;-78
2022/12/17 20:36:58;;;;;;;110.13;44.80;;;;;;;;;;5104464;27;20092;-78
2022/12/17 20:39:25;;;;;;;115.20;46.22;;;;;;;;;;5101842;27;20776;-78
2022/12/17 20:41:51;;;;;;;110.93;42.90;;;;;;;;;;5089992;27;21134;-78
2022/12/17 20:44:17;;;;;;;118.53;49.38;;;;;;;;;;5082583;27;20402;-78
2022/12/17 20:46:44;;;;;;;91.90;38.25;;;;;;;;;;5101429;27;20043;-78
2022/12/17 20:49:10;;;;;;;123.38;50.35;;;;;;;;;;5082781;27;20092;-78
2022/12/17 20:51:37;;;;;;;112.35;43.03;;;;;;;;;;5103869;27;20043;-78
2022/12/17 20:54:03;;;;;;;123.80;47.10;;;;;;;;;;5099893;27;20073;-78
2022/12/17 20:56:30;;;;;;;136.88;58.85;;;;;;;;;;5101858;27;20102;-78
2022/12/17 20:59:01;;;;;;;102.55;42.35;;;;;;;;;;5102950;27;21976;-78
2022/12/17 21:01:28;;;;;;;115.05;45.60;;;;;;;;;;5084888;27;20039;-78
2022/12/17 21:03:54;;;;;;;107.32;42.40;;;;;;;;;;5102580;27;20071;-78
2022/12/17 21:06:22;;;;;;;104.75;43.05;;;;;;;;;;5101327;27;20035;-78
2022/12/17 21:08:50;;;;;;;95.45;39.28;;;;;;;;;;5102238;27;20499;-78
2022/12/17 21:11:17;;;;;;;110.85;45.67;;;;;;;;;;5086573;27;21432;-78
2022/12/17 21:13:43;;;;;;;104.70;41.78;;;;;;;;;;5101560;27;20479;-78
2022/12/17 21:16:13;;;;;;;117.32;45.40;;;;;;;;;;5103257;27;20069;-78
2022/12/17 21:18:39;;;;;;;101.38;37.78;;;;;;;;;;5102021;27;20170;-77
2022/12/17 21:21:07;;;;;;;119.85;45.50;;;;;;;;;;5101244;27;20043;-78
2022/12/17 21:23:34;;;;;;;114.18;46.45;;;;;;;;;;5120484;27;20770;-78
2022/12/17 21:26:04;;;;;;;112.05;39.17;;;;;;;;;;5101249;27;20042;-78
2022/12/17 21:28:31;;;;;;;130.15;49.75;;;;;;;;;;5119880;27;20039;-78
2022/12/17 21:30:57;;;;;;;124.35;46.20;;;;;;;;;;5083190;27;20035;-78
2022/12/17 21:33:23;;;;;;;91.43;34.83;;;;;;;;;;5103912;27;20039;-78
2022/12/17 21:35:49;;;;;;;112.60;44.33;;;;;;;;;;5102292;27;20659;-78
2022/12/17 21:38:15;;;;;;;88.05;33.97;;;;;;;;;;5118505;27;20082;-78
2022/12/17 21:40:41;;;;;;;109.90;44.83;;;;;;;;;;5122962;27;20038;-78
2022/12/17 21:43:07;;;;;;;117.88;44.58;;;;;;;;;;5103903;27;22064;-77
2022/12/17 21:45:37;;;;;;;115.57;43.13;;;;;;;;;;5109920;27;20061;-78
2022/12/17 21:48:04;;;;;;;129.75;48.15;;;;;;;;;;5104464;27;20126;-78
2022/12/17 21:50:31;;;;;;;140.98;55.60;;;;;;;;;;5102183;27;20059;-78
2022/12/17 21:52:57;;;;;;;117.75;44.58;;;;;;;;;;5100925;27;20047;-78
2022/12/17 21:55:23;;;;;;;126.18;46.60;;;;;;;;;;5101678;27;20639;-77
2022/12/17 21:57:49;;;;;;;119.75;45.30;;;;;;;;;;5069449;27;20042;-76
2022/12/17 22:00:16;;;;;;;132.77;47.30;;;;;;;;;;5098326;27;20566;-75
2022/12/17 22:02:42;;;;;;;133.50;48.38;;;;;;;;;;5102043;27;20043;-75
2022/12/17 22:05:08;;;;;;;114.78;42.25;;;;;;;;;;5092985;27;20050;-75
2022/12/17 22:07:34;;;;;;;114.45;45.10;;;;;;;;;;5101450;27;20134;-75
2022/12/17 22:10:00;;;;;;;114.20;42.33;;;;;;;;;;5089198;27;20442;-76
2022/12/17 22:15:11;;;;;;;115.53;41.03;;;;;;;;;;5108673;27;20586;-75
2022/12/17 22:17:37;;;;;;;106.32;38.45;;;;;;;;;;5108442;27;20050;-78
2022/12/17 22:20:04;;;;;;;101.45;38.95;;;;;;;;;;5095106;27;20097;-76
2022/12/17 22:22:30;;;;;;;116.72;45.72;;;;;;;;;;5105080;27;20130;-72
2022/12/17 22:24:56;;;;;;;109.10;42.03;;;;;;;;;;5072065;27;20121;-76
2022/12/17 22:27:22;;;;;;;103.78;37.85;;;;;;;;;;5095283;27;20066;-75
2022/12/17 22:35:18;;;;;;;98.63;38.60;;;;;;;;;;5101282;27;22329;-74
2022/12/17 22:37:44;;;;;;;95.47;36.30;;;;;;;;;;5098930;27;20051;-74
2022/12/17 22:40:11;;;;;;;119.57;43.75;;;;;;;;;;5098065;27;20104;-73
2022/12/17 22:45:21;;;;;;;110.18;41.72;;;;;;;;;;5114786;27;20043;-74
2022/12/17 22:47:48;;;;;;;88.13;32.67;;;;;;;;;;5084674;27;20226;-74
2022/12/17 22:50:14;;;;;;;118.70;44.55;;;;;;;;;;5098293;27;20043;-74
2022/12/17 22:52:40;;;;;;;121.28;46.63;;;;;;;;;;5096293;27;20579;-74
2022/12/17 22:55:06;;;;;;;90.68;33.47;;;;;;;;;;5097492;27;20451;-74
2022/12/17 22:57:32;;;;;;;109.90;38.78;;;;;;;;;;5080194;27;20062;-73
2022/12/17 22:59:58;;;;;;;81.20;31.73;;;;;;;;;;5113318;27;20074;-73
2022/12/17 23:02:24;;;;;;;132.02;50.40;;;;;;;;;;5091741;27;20073;-72
2022/12/17 23:04:50;;;;;;;94.65;32.53;;;;;;;;;;5101926;27;21686;-73
2022/12/17 23:07:16;;;;;;;112.05;44.03;;;;;;;;;;5118513;27;20043;-73
2022/12/17 23:09:42;;;;;;;103.40;38.63;;;;;;;;;;5095796;27;20077;-72
2022/12/17 23:14:53;;;;;;;123.30;44.10;;;;;;;;;;5099313;27;20046;-74
2022/12/17 23:17:19;;;;;;;114.35;39.40;;;;;;;;;;5094989;27;20099;-74
2022/12/17 23:19:45;;;;;;;114.95;42.92;;;;;;;;;;5116988;27;20055;-75
2022/12/17 23:22:11;;;;;;;115.82;42.33;;;;;;;;;;5094482;27;20043;-75
2022/12/17 23:24:37;;;;;;;114.05;41.60;;;;;;;;;;5062481;27;20450;-75
2022/12/17 23:27:03;;;;;;;108.60;38.97;;;;;;;;;;5096495;27;20039;-76
2022/12/17 23:29:29;;;;;;;117.80;42.65;;;;;;;;;;5095341;27;20058;-75
2022/12/17 23:31:55;;;;;;;105.78;38.42;;;;;;;;;;5095965;27;20043;-75
2022/12/17 23:34:22;;;;;;;114.28;40.97;;;;;;;;;;5096773;27;20509;-73
2022/12/17 23:36:48;;;;;;;105.82;38.20;;;;;;;;;;5085831;27;20089;-73
2022/12/17 23:39:14;;;;;;;94.68;34.58;;;;;;;;;;5096710;27;20453;-73
2022/12/17 23:41:40;;;;;;;123.60;46.10;;;;;;;;;;5097530;27;22019;-73
2022/12/17 23:44:06;;;;;;;105.03;38.20;;;;;;;;;;5095713;27;21840;-73
2022/12/17 23:46:32;;;;;;;129.90;44.33;;;;;;;;;;5095461;27;20130;-73
2022/12/17 23:48:58;;;;;;;113.18;38.45;;;;;;;;;;5096469;27;20034;-73
2022/12/17 23:51:25;;;;;;;107.72;40.38;;;;;;;;;;5098056;27;20051;-74
2022/12/17 23:53:51;;;;;;;113.38;40.90;;;;;;;;;;5079699;27;20442;-74
2022/12/17 23:56:19;;;;;;;104.07;37.30;;;;;;;;;;5096125;27;20042;-74
2022/12/17 23:58:45;;;;;;;126.45;44.00;;;;;;;;;;5093070;27;20103;-74
